Time,TemperatureF,DewpointF,PressureIn,WindDirection,WindDirectionDegrees,WindSpeedMPH,WindSpeedGustMPH,Humidity,HourlyPrecipIn,Conditions,Clouds,dailyrainin,SoftwareType,DateUTC
2015-03-05 00:02:00,37.6,36.3,30.01,NNW,346,1.0,5.0,95,0.04,,,0.22,meteohub,2015-03-05 05:02:00,
2015-03-05 00:07:00,37.6,36.3,30.01,NW,311,1.0,3.0,95,0.05,,,0.23,meteohub,2015-03-05 05:07:00,
2015-03-05 00:12:00,37.4,36.1,30.01,NNW,336,0.0,4.0,95,0.04,,,0.23,meteohub,2015-03-05 05:12:00,
2015-03-05 00:17:00,37.2,36.0,30.01,NNW,333,1.0,4.0,95,0.04,,,0.23,meteohub,2015-03-05 05:17:00,
2015-03-05 00:22:00,37.2,36.0,30.01,NW,311,1.0,4.0,95,0.05,,,0.24,meteohub,2015-03-05 05:22:00,
2015-03-05 00:27:00,37.0,35.8,30.00,NNW,332,1.0,3.0,95,0.05,,,0.24,meteohub,2015-03-05 05:27:00,
2015-03-05 00:32:00,37.0,35.8,30.01,NW,304,2.0,3.0,95,0.04,,,0.24,meteohub,2015-03-05 05:32:00,
2015-03-05 00:37:00,36.9,35.6,30.00,NW,311,1.0,4.0,95,0.05,,,0.25,meteohub,2015-03-05 05:37:00,
2015-03-05 00:42:00,36.9,35.6,30.00,NW,311,2.0,4.0,95,0.04,,,0.25,meteohub,2015-03-05 05:42:00,
2015-03-05 00:47:00,36.9,35.6,30.00,NW,309,4.0,4.0,95,0.04,,,0.25,meteohub,2015-03-05 05:47:00,
2015-03-05 00:52:00,36.9,35.6,30.01,NW,321,3.0,7.0,95,0.04,,,0.26,meteohub,2015-03-05 05:52:00,
2015-03-05 00:57:00,36.7,35.4,30.01,NW,311,2.0,7.0,95,0.04,,,0.26,meteohub,2015-03-05 05:57:00,
2015-03-05 01:02:00,36.7,35.4,30.01,WNW,302,1.0,5.0,95,0.04,,,0.26,meteohub,2015-03-05 06:02:00,
2015-03-05 01:07:00,36.7,35.4,30.01,NW,304,1.0,5.0,95,0.04,,,0.27,meteohub,2015-03-05 06:07:00,
2015-03-05 01:12:00,36.5,35.2,30.01,NNW,348,0.0,6.0,95,0.04,,,0.27,meteohub,2015-03-05 06:12:00,
2015-03-05 01:17:00,36.5,35.2,30.02,NW,317,2.0,6.0,95,0.05,,,0.28,meteohub,2015-03-05 06:17:00,
2015-03-05 01:22:00,36.3,35.1,30.01,NW,318,2.0,9.0,95,0.04,,,0.28,meteohub,2015-03-05 06:22:00,
2015-03-05 01:27:00,36.3,35.1,30.01,NW,320,1.0,9.0,95,0.05,,,0.29,meteohub,2015-03-05 06:27:00,
2015-03-05 01:32:00,36.3,35.1,30.01,NW,304,1.0,9.0,95,0.04,,,0.29,meteohub,2015-03-05 06:32:00,
2015-03-05 01:37:00,36.1,34.9,30.01,North,4,4.0,5.0,95,0.04,,,0.29,meteohub,2015-03-05 06:37:00,
2015-03-05 01:42:00,36.1,34.9,30.01,NW,307,2.0,8.0,95,0.04,,,0.29,meteohub,2015-03-05 06:42:00,
2015-03-05 01:47:00,36.1,34.9,30.02,NW,304,4.0,8.0,95,0.03,,,0.29,meteohub,2015-03-05 06:47:00,
2015-03-05 01:52:00,36.1,34.5,30.02,NNW,327,7.0,8.0,94,0.04,,,0.30,meteohub,2015-03-05 06:52:00,
2015-03-05 01:57:00,36.0,34.3,30.03,NNW,332,3.0,11.0,94,0.04,,,0.30,meteohub,2015-03-05 06:57:00,
2015-03-05 02:02:00,36.0,34.3,30.03,NW,323,2.0,11.0,94,0.03,,,0.30,meteohub,2015-03-05 07:02:00,
2015-03-05 02:07:00,36.0,34.3,30.04,NW,320,1.0,11.0,94,0.04,,,0.31,meteohub,2015-03-05 07:07:00,